Time;durP1;ratioP1;P1;durP2;ratioP2;P2;SDS_P1;SDS_P2;PMS_P1;PMS_P2;Temp;Humidity;BMP_temperature;BMP_pressure;BME280_temperature;BME280_humidity;BME280_pressure;Samples;Min_cycle;Max_cycle;Signal;HPM_P1;HPM_P2
2023/03/29 00:00:58;;;;;;;;;;;6.20;78.50;;;;;;5133762;27;19972;-70
2023/03/29 00:03:25;;;;;;;;;;;6.30;78.60;;;;;;5136297;28;20350;-70
2023/03/29 00:05:56;;;;;;;;;;;6.20;78.50;;;;;;5136040;28;19953;-69
2023/03/29 00:08:23;;;;;;;;;;;6.30;78.60;;;;;;5136125;28;19922;-70
2023/03/29 00:10:50;;;;;;;;;;;6.30;78.60;;;;;;5135954;28;19916;-70
2023/03/29 00:13:17;;;;;;;;;;;6.30;78.60;;;;;;5135853;28;20391;-70
2023/03/29 00:15:42;;;;;;;;;;;6.30;78.60;;;;;;5116183;28;20363;-69
2023/03/29 00:18:08;;;;;;;;;;;6.30;78.60;;;;;;5135749;28;19916;-69
2023/03/29 00:20:33;;;;;;;;;;;6.30;78.60;;;;;;5135653;28;20006;-69
2023/03/29 00:22:59;;;;;;;;;;;6.30;78.60;;;;;;5136019;28;19943;-69
2023/03/29 00:25:24;;;;;;;;;;;6.30;78.60;;;;;;5135557;28;20049;-70
2023/03/29 00:27:50;;;;;;;;;;;6.30;78.60;;;;;;5135424;28;19923;-69
2023/03/29 00:30:16;;;;;;;;;;;6.40;78.70;;;;;;5135447;28;19919;-69
2023/03/29 00:32:42;;;;;;;;;;;6.40;78.70;;;;;;5135439;28;19922;-69
2023/03/29 00:35:08;;;;;;;;;;;6.40;78.70;;;;;;5117064;28;20273;-69
2023/03/29 00:37:33;;;;;;;;;;;6.40;78.70;;;;;;5135336;28;19916;-70
2023/03/29 00:39:59;;;;;;;;;;;6.50;78.70;;;;;;5114981;28;20044;-69
2023/03/29 00:42:25;;;;;;;;;;;6.40;78.60;;;;;;5135261;28;19970;-69
2023/03/29 00:45:00;;;;;;;;;;;6.30;78.50;;;;;;5135284;28;19915;-70
2023/03/29 00:47:29;;;;;;;;;;;6.30;78.50;;;;;;5135224;28;20360;-69
2023/03/29 00:49:59;;;;;;;;;;;6.40;78.60;;;;;;5135217;28;19964;-70
2023/03/29 00:52:29;;;;;;;;;;;6.50;78.60;;;;;;5116019;28;19919;-70
2023/03/29 00:54:57;;;;;;;;;;;6.40;78.50;;;;;;5115910;28;20013;-70
2023/03/29 00:57:23;;;;;;;;;;;6.40;78.50;;;;;;5135007;28;20399;-70
2023/03/29 00:59:50;;;;;;;;;;;6.40;78.50;;;;;;5135094;28;19915;-70
2023/03/29 01:02:20;;;;;;;;;;;6.40;78.40;;;;;;5134997;28;20420;-70
2023/03/29 01:04:50;;;;;;;;;;;6.50;78.50;;;;;;5116402;28;20272;-69
2023/03/29 01:07:20;;;;;;;;;;;6.50;78.40;;;;;;5134973;28;19949;-69
2023/03/29 01:09:54;;;;;;;;;;;6.50;78.40;;;;;;5135015;28;19953;-70
2023/03/29 01:12:21;;;;;;;;;;;6.50;78.40;;;;;;5134149;27;20279;-69
2023/03/29 01:14:50;;;;;;;;;;;6.50;78.40;;;;;;5115696;28;19916;-70
2023/03/29 01:17:20;;;;;;;;;;;6.50;78.40;;;;;;5115829;28;19915;-69
2023/03/29 01:19:49;;;;;;;;;;;6.40;78.30;;;;;;5134772;28;20002;-69
2023/03/29 01:22:21;;;;;;;;;;;6.60;78.40;;;;;;5134620;28;19968;-69
2023/03/29 01:25:02;;;;;;;;;;;6.60;78.30;;;;;;5134640;28;19999;-69
2023/03/29 01:27:42;;;;;;;;;;;6.60;78.40;;;;;;5113720;28;19922;-69
2023/03/29 01:30:11;;;;;;;;;;;6.60;78.40;;;;;;5134482;28;20006;-70
2023/03/29 01:32:41;;;;;;;;;;;6.60;78.30;;;;;;5134526;28;19915;-70
2023/03/29 01:35:12;;;;;;;;;;;6.60;78.30;;;;;;5134584;28;19915;-70
2023/03/29 01:37:40;;;;;;;;;;;6.70;78.40;;;;;;5134378;28;19951;-70
2023/03/29 01:40:05;;;;;;;;;;;6.60;78.30;;;;;;5115491;28;19929;-70
2023/03/29 01:42:48;;;;;;;;;;;6.60;78.40;;;;;;5134242;28;20299;-70
2023/03/29 01:45:20;;;;;;;;;;;6.60;78.30;;;;;;5134519;28;19916;-69
2023/03/29 01:47:53;;;;;;;;;;;6.60;78.30;;;;;;5134238;28;20037;-69
2023/03/29 01:50:36;;;;;;;;;;;6.70;78.30;;;;;;5134011;28;19915;-70
2023/03/29 01:53:04;;;;;;;;;;;6.70;78.20;;;;;;5134097;28;19912;-70
2023/03/29 01:55:31;;;;;;;;;;;6.70;78.20;;;;;;5134108;28;20314;-69
2023/03/29 01:57:58;;;;;;;;;;;6.80;78.30;;;;;;5134241;28;19990;-69
2023/03/29 02:00:26;;;;;;;;;;;6.80;78.30;;;;;;5133857;28;19915;-70
2023/03/29 02:02:53;;;;;;;;;;;6.70;78.20;;;;;;5133841;28;19919;-70
2023/03/29 02:05:20;;;;;;;;;;;6.80;78.20;;;;;;5113954;28;20270;-69
2023/03/29 02:07:46;;;;;;;;;;;6.80;78.20;;;;;;5115442;28;19922;-70
2023/03/29 02:10:12;;;;;;;;;;;6.80;78.20;;;;;;5133986;28;19915;-70
2023/03/29 02:12:37;;;;;;;;;;;6.80;78.20;;;;;;5134067;28;20021;-69
2023/03/29 02:15:06;;;;;;;;;;;6.80;78.10;;;;;;5115647;28;19916;-70
2023/03/29 02:17:32;;;;;;;;;;;6.90;78.20;;;;;;5133968;28;19918;-69
2023/03/29 02:20:03;;;;;;;;;;;6.80;78.10;;;;;;5133784;28;20364;-70
2023/03/29 02:22:35;;;;;;;;;;;6.80;78.10;;;;;;5133678;28;19923;-69
2023/03/29 02:25:02;;;;;;;;;;;6.90;78.10;;;;;;5133493;27;19923;-69
2023/03/29 02:27:28;;;;;;;;;;;6.80;78.10;;;;;;5114347;28;20002;-69
2023/03/29 02:29:54;;;;;;;;;;;6.90;78.10;;;;;;5113574;28;20003;-70
2023/03/29 02:32:22;;;;;;;;;;;6.80;78.10;;;;;;5133623;28;19994;-70
2023/03/29 02:34:55;;;;;;;;;;;6.80;78.20;;;;;;5133733;28;20049;-69
2023/03/29 02:37:24;;;;;;;;;;;6.90;78.20;;;;;;5114874;28;19961;-69
2023/03/29 02:39:51;;;;;;;;;;;6.90;78.30;;;;;;5114879;28;20257;-69
2023/03/29 02:42:19;;;;;;;;;;;6.80;78.30;;;;;;5133397;28;20300;-69
2023/03/29 02:44:46;;;;;;;;;;;6.80;78.30;;;;;;5133400;28;19915;-69
2023/03/29 02:47:14;;;;;;;;;;;6.70;78.40;;;;;;5133538;28;20391;-69
2023/03/29 02:49:40;;;;;;;;;;;6.80;78.60;;;;;;5133496;28;19981;-69
2023/03/29 02:52:09;;;;;;;;;;;6.70;78.70;;;;;;5133817;28;20365;-70
2023/03/29 02:54:36;;;;;;;;;;;6.70;78.80;;;;;;5133193;28;19916;-69
2023/03/29 02:57:05;;;;;;;;;;;6.60;78.80;;;;;;5133248;28;19915;-69
2023/03/29 02:59:32;;;;;;;;;;;6.60;79.00;;;;;;5133152;28;19921;-69
2023/03/29 03:01:58;;;;;;;;;;;6.60;79.10;;;;;;5133108;28;19923;-69
2023/03/29 03:04:24;;;;;;;;;;;6.60;79.30;;;;;;5133343;28;19920;-69
2023/03/29 03:06:49;;;;;;;;;;;6.60;79.40;;;;;;5133077;28;19915;-69
2023/03/29 03:09:15;;;;;;;;;;;6.50;79.40;;;;;;5133220;28;19915;-69
2023/03/29 03:11:41;;;;;;;;;;;6.60;79.60;;;;;;5133086;28;19923;-69
2023/03/29 03:14:07;;;;;;;;;;;6.60;79.70;;;;;;5133090;28;20006;-69
2023/03/29 03:16:32;;;;;;;;;;;6.60;79.70;;;;;;5132493;28;19922;-70
2023/03/29 03:18:58;;;;;;;;;;;6.60;79.80;;;;;;5133110;28;20330;-69
2023/03/29 03:21:24;;;;;;;;;;;6.60;79.80;;;;;;5113030;28;20015;-69
2023/03/29 03:23:50;;;;;;;;;;;6.60;79.80;;;;;;5133557;28;20344;-69
2023/03/29 03:26:17;;;;;;;;;;;6.60;79.90;;;;;;5132985;28;19915;-69
2023/03/29 03:28:44;;;;;;;;;;;6.60;79.90;;;;;;5133031;28;19915;-69
2023/03/29 03:31:10;;;;;;;;;;;6.60;80.00;;;;;;5132946;28;19964;-70
2023/03/29 03:33:35;;;;;;;;;;;6.60;80.00;;;;;;5132798;28;19915;-69
2023/03/29 03:36:04;;;;;;;;;;;6.60;80.00;;;;;;5133392;27;19920;-69
2023/03/29 03:38:31;;;;;;;;;;;6.60;80.00;;;;;;5136410;28;19916;-70
2023/03/29 03:40:57;;;;;;;;;;;6.60;80.00;;;;;;5136384;28;20020;-69
2023/03/29 03:43:23;;;;;;;;;;;6.70;80.20;;;;;;5136248;28;20296;-69
2023/03/29 03:45:48;;;;;;;;;;;6.70;80.20;;;;;;5117960;28;19916;-69
2023/03/29 03:48:14;;;;;;;;;;;6.80;80.30;;;;;;5136326;28;19915;-69
2023/03/29 03:50:39;;;;;;;;;;;6.80;80.30;;;;;;5136155;28;19923;-70
2023/03/29 03:53:05;;;;;;;;;;;6.70;80.30;;;;;;5117070;28;19916;-70
2023/03/29 03:55:31;;;;;;;;;;;6.70;80.30;;;;;;5136245;28;19922;-69
2023/03/29 03:57:57;;;;;;;;;;;6.70;80.30;;;;;;5115718;28;19915;-69
2023/03/29 04:00:22;;;;;;;;;;;6.70;80.30;;;;;;5117673;28;20014;-69
2023/03/29 04:02:50;;;;;;;;;;;6.60;80.20;;;;;;5136367;28;19925;-69
2023/03/29 04:05:16;;;;;;;;;;;6.70;80.30;;;;;;5136504;28;20006;-69
2023/03/29 04:07:41;;;;;;;;;;;6.70;80.30;;;;;;5136656;28;19955;-69
2023/03/29 04:10:08;;;;;;;;;;;6.70;80.30;;;;;;5136211;28;19954;-69
2023/03/29 04:12:34;;;;;;;;;;;6.80;80.30;;;;;;5136185;28;19915;-69
2023/03/29 04:15:00;;;;;;;;;;;6.80;80.40;;;;;;5136618;28;19919;-69
2023/03/29 04:17:26;;;;;;;;;;;6.80;80.40;;;;;;5136066;28;20311;-69
2023/03/29 04:19:51;;;;;;;;;;;6.80;80.40;;;;;;5136033;28;19915;-70
2023/03/29 04:22:17;;;;;;;;;;;6.80;80.40;;;;;;5115748;28;19920;-69
2023/03/29 04:24:42;;;;;;;;;;;6.80;80.40;;;;;;5136017;28;20006;-69
2023/03/29 04:27:08;;;;;;;;;;;7.00;80.50;;;;;;5135803;28;19964;-69
2023/03/29 04:29:34;;;;;;;;;;;6.90;80.50;;;;;;5135672;28;20288;-70
2023/03/29 04:31:59;;;;;;;;;;;6.80;80.40;;;;;;5136086;28;19915;-70
2023/03/29 04:34:25;;;;;;;;;;;6.90;80.40;;;;;;5135799;28;19920;-69
2023/03/29 04:36:50;;;;;;;;;;;6.80;80.40;;;;;;5115738;28;19939;-69
2023/03/29 04:39:16;;;;;;;;;;;6.90;80.40;;;;;;5135674;28;19938;-70
2023/03/29 04:41:43;;;;;;;;;;;6.90;80.50;;;;;;5116450;28;19998;-69
2023/03/29 04:44:09;;;;;;;;;;;6.90;80.50;;;;;;5135535;28;19924;-70
2023/03/29 04:46:37;;;;;;;;;;;6.90;80.50;;;;;;5135673;27;20393;-70
2023/03/29 04:49:03;;;;;;;;;;;6.90;80.50;;;;;;5135500;28;20005;-68
2023/03/29 04:51:28;;;;;;;;;;;6.90;80.50;;;;;;5116170;28;19947;-69
2023/03/29 04:53:54;;;;;;;;;;;6.90;80.50;;;;;;5135544;28;19916;-69
2023/03/29 04:56:19;;;;;;;;;;;6.90;80.50;;;;;;5135422;28;19941;-69
2023/03/29 04:58:45;;;;;;;;;;;7.00;80.50;;;;;;5135322;28;19922;-69
2023/03/29 05:01:10;;;;;;;;;;;7.00;80.60;;;;;;5115277;28;20285;-68
2023/03/29 05:03:36;;;;;;;;;;;7.00;80.60;;;;;;5135137;28;19930;-68
2023/03/29 05:06:05;;;;;;;;;;;7.00;80.60;;;;;;5135177;28;20322;-68
2023/03/29 05:08:33;;;;;;;;;;;7.00;80.60;;;;;;5115721;28;19980;-68
2023/03/29 05:10:59;;;;;;;;;;;7.00;80.60;;;;;;5135246;28;19915;-68
2023/03/29 05:13:24;;;;;;;;;;;7.00;80.60;;;;;;5116546;28;20288;-68
2023/03/29 05:15:50;;;;;;;;;;;7.00;80.60;;;;;;5135106;28;19922;-68
2023/03/29 05:18:16;;;;;;;;;;;7.00;80.60;;;;;;5117031;28;19922;-68
2023/03/29 05:20:41;;;;;;;;;;;7.00;80.70;;;;;;5135161;28;19915;-68
2023/03/29 05:23:07;;;;;;;;;;;7.00;80.70;;;;;;5134911;28;19919;-67
2023/03/29 05:25:33;;;;;;;;;;;7.00;80.70;;;;;;5134931;28;19915;-67
2023/03/29 05:27:58;;;;;;;;;;;7.10;80.70;;;;;;5134865;28;19915;-67
2023/03/29 05:30:24;;;;;;;;;;;7.20;80.80;;;;;;5134836;28;19954;-66
2023/03/29 05:32:50;;;;;;;;;;;7.10;80.70;;;;;;5115076;28;19923;-69
2023/03/29 05:35:15;;;;;;;;;;;7.20;80.80;;;;;;5134688;28;19915;-68
2023/03/29 05:37:41;;;;;;;;;;;7.10;80.70;;;;;;5134685;28;19944;-67
2023/03/29 05:40:09;;;;;;;;;;;7.20;80.70;;;;;;5134711;28;19922;-68
2023/03/29 05:42:35;;;;;;;;;;;7.20;80.70;;;;;;5116709;28;19923;-68
2023/03/29 05:45:01;;;;;;;;;;;7.20;80.70;;;;;;5134797;28;19953;-68
2023/03/29 05:47:27;;;;;;;;;;;7.20;80.80;;;;;;5115150;28;20002;-68
2023/03/29 05:49:52;;;;;;;;;;;7.30;80.80;;;;;;5134675;28;19915;-68
2023/03/29 05:52:18;;;;;;;;;;;7.20;80.70;;;;;;5134423;28;19998;-67
2023/03/29 05:54:44;;;;;;;;;;;7.30;80.70;;;;;;5134416;28;19915;-68
2023/03/29 05:57:09;;;;;;;;;;;7.20;80.60;;;;;;5116245;28;19965;-68
2023/03/29 05:59:35;;;;;;;;;;;7.30;80.70;;;;;;5133864;27;19916;-68
2023/03/29 06:02:03;;;;;;;;;;;7.30;80.70;;;;;;5134495;28;19953;-68
2023/03/29 06:04:29;;;;;;;;;;;7.30;80.70;;;;;;5134416;28;19920;-67
2023/03/29 06:06:55;;;;;;;;;;;7.30;80.60;;;;;;5134482;28;19971;-67
2023/03/29 06:09:21;;;;;;;;;;;7.40;80.60;;;;;;5134181;28;19923;-67
2023/03/29 06:11:47;;;;;;;;;;;7.50;80.60;;;;;;5134146;28;19955;-68
2023/03/29 06:14:12;;;;;;;;;;;7.40;80.60;;;;;;5134176;28;20312;-68
2023/03/29 06:16:39;;;;;;;;;;;7.40;80.50;;;;;;5115803;28;20384;-68
2023/03/29 06:19:05;;;;;;;;;;;7.50;80.40;;;;;;5134044;28;19991;-68
2023/03/29 06:21:31;;;;;;;;;;;7.50;80.40;;;;;;5133866;28;20400;-68
2023/03/29 06:23:57;;;;;;;;;;;7.50;80.30;;;;;;5133941;28;19926;-67
2023/03/29 06:26:23;;;;;;;;;;;7.50;80.30;;;;;;5134083;28;19915;-68
2023/03/29 06:28:49;;;;;;;;;;;7.60;80.30;;;;;;5133889;28;19922;-68
2023/03/29 06:31:15;;;;;;;;;;;7.70;80.30;;;;;;5133970;28;19916;-68
2023/03/29 06:33:42;;;;;;;;;;;7.70;80.10;;;;;;5134420;28;20349;-68
2023/03/29 06:36:08;;;;;;;;;;;7.70;80.00;;;;;;5134020;28;19941;-67
2023/03/29 06:38:34;;;;;;;;;;;7.80;79.90;;;;;;5115573;28;19916;-68
2023/03/29 06:41:02;;;;;;;;;;;7.90;79.90;;;;;;5133941;28;19916;-68
2023/03/29 06:43:27;;;;;;;;;;;7.90;79.70;;;;;;5133945;28;20391;-68
2023/03/29 06:45:53;;;;;;;;;;;8.00;79.60;;;;;;5133869;28;19916;-67
2023/03/29 06:48:19;;;;;;;;;;;8.00;79.50;;;;;;5133631;28;19922;-68
2023/03/29 06:50:46;;;;;;;;;;;8.00;79.50;;;;;;5133776;28;19915;-68
2023/03/29 06:53:12;;;;;;;;;;;7.90;79.50;;;;;;5133673;28;19938;-68
2023/03/29 06:55:37;;;;;;;;;;;7.80;79.60;;;;;;5114570;28;19912;-68
2023/03/29 06:58:03;;;;;;;;;;;7.80;79.80;;;;;;5133616;28;19916;-68
2023/03/29 07:00:28;;;;;;;;;;;7.90;80.00;;;;;;5115309;28;20292;-68
2023/03/29 07:02:56;;;;;;;;;;;7.80;80.10;;;;;;5133517;28;20313;-68
2023/03/29 07:05:22;;;;;;;;;;;7.90;80.20;;;;;;5133593;28;19950;-68
2023/03/29 07:07:55;;;;;;;;;;;7.80;80.10;;;;;;5133582;28;19951;-68
2023/03/29 07:10:24;;;;;;;;;;;8.10;80.30;;;;;;5133401;27;20296;-68
2023/03/29 07:12:51;;;;;;;;;;;8.00;80.10;;;;;;5117086;28;19939;-68
2023/03/29 07:15:17;;;;;;;;;;;8.00;80.10;;;;;;5137122;28;20390;-67
2023/03/29 07:17:43;;;;;;;;;;;8.00;80.10;;;;;;5137096;28;20010;-68
2023/03/29 07:20:13;;;;;;;;;;;8.00;80.20;;;;;;5136966;28;19953;-68
2023/03/29 07:22:40;;;;;;;;;;;8.10;80.20;;;;;;5136838;28;19922;-68
2023/03/29 07:25:08;;;;;;;;;;;8.20;80.20;;;;;;5136912;28;20018;-67
2023/03/29 07:27:34;;;;;;;;;;;8.20;80.20;;;;;;5118308;28;19939;-67
2023/03/29 07:29:59;;;;;;;;;;;8.20;80.10;;;;;;5137127;28;19959;-67
2023/03/29 07:32:25;;;;;;;;;;;8.30;80.10;;;;;;5136787;28;19922;-68
2023/03/29 07:34:51;;;;;;;;;;;8.40;80.00;;;;;;5136770;28;19987;-67
2023/03/29 07:37:16;;;;;;;;;;;8.40;79.90;;;;;;5136805;28;20006;-68
2023/03/29 07:39:41;;;;;;;;;;;8.50;79.80;;;;;;5136733;28;19938;-68
2023/03/29 07:42:07;;;;;;;;;;;8.60;79.80;;;;;;5136659;28;19915;-68
2023/03/29 07:44:34;;;;;;;;;;;8.60;79.60;;;;;;5136630;28;19926;-68
2023/03/29 07:47:00;;;;;;;;;;;8.70;79.60;;;;;;5117116;28;20429;-68
2023/03/29 07:49:26;;;;;;;;;;;8.70;79.50;;;;;;5136706;28;19922;-68
2023/03/29 07:51:53;;;;;;;;;;;8.80;79.40;;;;;;5136426;28;19915;-67
2023/03/29 07:54:19;;;;;;;;;;;8.90;79.40;;;;;;5136437;28;20006;-68
2023/03/29 07:56:44;;;;;;;;;;;9.00;79.30;;;;;;5136533;28;19954;-68
2023/03/29 07:59:10;;;;;;;;;;;9.10;79.20;;;;;;5136526;28;19916;-68
2023/03/29 08:01:36;;;;;;;;;;;9.10;79.10;;;;;;5136384;28;19915;-68
2023/03/29 08:04:01;;;;;;;;;;;9.10;79.00;;;;;;5116431;28;19932;-68
2023/03/29 08:06:27;;;;;;;;;;;9.20;79.00;;;;;;5136330;28;19915;-68
2023/03/29 08:08:52;;;;;;;;;;;9.20;79.10;;;;;;5136162;28;19938;-68
2023/03/29 08:11:18;;;;;;;;;;;9.30;79.20;;;;;;5116645;28;19945;-68
2023/03/29 08:13:43;;;;;;;;;;;9.30;79.20;;;;;;5136225;28;19957;-68
2023/03/29 08:16:10;;;;;;;;;;;9.40;79.10;;;;;;5136173;28;19967;-68
2023/03/29 08:18:35;;;;;;;;;;;9.30;78.90;;;;;;5136122;28;19916;-67
2023/03/29 08:21:01;;;;;;;;;;;9.40;78.80;;;;;;5136147;28;19938;-68
2023/03/29 08:23:26;;;;;;;;;;;9.50;78.80;;;;;;5135522;27;20314;-68
2023/03/29 08:25:52;;;;;;;;;;;9.60;78.90;;;;;;5116578;28;20415;-68
2023/03/29 08:28:17;;;;;;;;;;;9.60;78.80;;;;;;5135887;28;19968;-68
2023/03/29 08:30:43;;;;;;;;;;;9.60;78.70;;;;;;5135781;28;19915;-68
2023/03/29 08:33:09;;;;;;;;;;;9.60;78.70;;;;;;5116278;28;19916;-67
2023/03/29 08:35:34;;;;;;;;;;;9.70;78.80;;;;;;5135757;28;19967;-68
2023/03/29 08:38:00;;;;;;;;;;;9.80;78.80;;;;;;5135666;28;19930;-68
2023/03/29 08:40:28;;;;;;;;;;;9.90;78.70;;;;;;5135804;28;19911;-68
2023/03/29 08:43:03;;;;;;;;;;;10.10;78.60;;;;;;5115884;28;19926;-69
2023/03/29 08:45:34;;;;;;;;;;;10.10;79.10;;;;;;5135450;28;20284;-68
2023/03/29 08:48:13;;;;;;;;;;;10.20;78.30;;;;;;5136017;28;19915;-68
2023/03/29 08:50:42;;;;;;;;;;;10.30;78.20;;;;;;5135583;28;19977;-68
2023/03/29 08:53:12;;;;;;;;;;;10.40;78.10;;;;;;5135550;28;19915;-67
2023/03/29 08:55:40;;;;;;;;;;;10.50;78.00;;;;;;5115117;28;19916;-68
2023/03/29 08:58:08;;;;;;;;;;;10.60;77.90;;;;;;5117154;28;19915;-67
2023/03/29 09:00:38;;;;;;;;;;;10.80;77.90;;;;;;5135358;28;19924;-67
2023/03/29 09:03:10;;;;;;;;;;;10.90;77.60;;;;;;5135295;28;19953;-67
2023/03/29 09:05:40;;;;;;;;;;;11.10;77.50;;;;;;5135326;28;19915;-68
2023/03/29 09:08:11;;;;;;;;;;;11.10;77.30;;;;;;5135182;28;19923;-68
2023/03/29 09:10:41;;;;;;;;;;;11.10;77.30;;;;;;5135147;28;19915;-68
2023/03/29 09:13:15;;;;;;;;;;;11.00;77.40;;;;;;5135049;28;20384;-68
2023/03/29 09:15:45;;;;;;;;;;;11.10;77.70;;;;;;5114694;28;19916;-67
2023/03/29 09:18:25;;;;;;;;;;;11.20;77.80;;;;;;5135057;28;19994;-68
2023/03/29 09:21:05;;;;;;;;;;;11.20;77.70;;;;;;5135004;28;19967;-68
2023/03/29 09:23:40;;;;;;;;;;;11.10;77.90;;;;;;5135025;28;20010;-68
2023/03/29 09:26:14;;;;;;;;;;;11.20;78.20;;;;;;5134889;28;19943;-68
2023/03/29 09:28:45;;;;;;;;;;;11.20;78.20;;;;;;5135273;28;19920;-67
2023/03/29 09:31:13;;;;;;;;;;;11.30;78.10;;;;;;5134854;28;20302;-68
2023/03/29 09:33:42;;;;;;;;;;;11.30;78.10;;;;;;5134582;27;19927;-68
2023/03/29 09:36:10;;;;;;;;;;;11.30;78.10;;;;;;5134975;28;19916;-68
2023/03/29 09:38:38;;;;;;;;;;;11.30;78.30;;;;;;5134898;28;19954;-68
2023/03/29 09:41:07;;;;;;;;;;;11.40;78.60;;;;;;5135201;28;19922;-68
2023/03/29 09:43:35;;;;;;;;;;;11.40;78.50;;;;;;5134726;28;19923;-68
2023/03/29 09:46:03;;;;;;;;;;;11.50;78.60;;;;;;5134728;28;19915;-68
2023/03/29 09:48:30;;;;;;;;;;;11.50;78.50;;;;;;5134799;28;19923;-68
2023/03/29 09:50:56;;;;;;;;;;;11.60;78.60;;;;;;5116149;28;19920;-68
2023/03/29 09:53:23;;;;;;;;;;;11.70;78.60;;;;;;5134485;28;19915;-68
2023/03/29 09:55:50;;;;;;;;;;;11.80;78.40;;;;;;5134552;28;19938;-68
2023/03/29 09:58:17;;;;;;;;;;;12.00;78.40;;;;;;5116382;28;19921;-68
2023/03/29 10:00:43;;;;;;;;;;;12.00;78.20;;;;;;5134969;28;19923;-68
2023/03/29 10:03:16;;;;;;;;;;;12.10;78.30;;;;;;5134128;28;19926;-68
2023/03/29 10:05:44;;;;;;;;;;;12.10;78.20;;;;;;5115013;28;19920;-68
2023/03/29 10:08:19;;;;;;;;;;;12.10;78.30;;;;;;5134293;28;20382;-68
2023/03/29 10:10:45;;;;;;;;;;;12.10;78.40;;;;;;5134243;28;19919;-68
2023/03/29 10:13:14;;;;;;;;;;;12.20;78.50;;;;;;5134333;28;19922;-68
2023/03/29 10:15:39;;;;;;;;;;;12.30;78.50;;;;;;5134171;28;19922;-68
2023/03/29 10:18:08;;;;;;;;;;;12.30;78.50;;;;;;5134095;28;19916;-68
2023/03/29 10:20:35;;;;;;;;;;;12.30;78.40;;;;;;5134051;28;19916;-68
2023/03/29 10:23:00;;;;;;;;;;;12.50;78.50;;;;;;5115770;28;19965;-68
2023/03/29 10:25:30;;;;;;;;;;;12.50;78.40;;;;;;5134310;28;19926;-68
2023/03/29 10:28:02;;;;;;;;;;;12.50;78.30;;;;;;5130514;28;19931;-69
2023/03/29 10:30:31;;;;;;;;;;;12.50;78.40;;;;;;5131177;28;20087;-68
2023/03/29 10:32:58;;;;;;;;;;;12.50;78.40;;;;;;5130030;28;19915;-68
2023/03/29 10:35:28;;;;;;;;;;;12.60;78.70;;;;;;5133433;28;20280;-68
2023/03/29 10:37:55;;;;;;;;;;;12.60;78.80;;;;;;5133749;28;19915;-68
2023/03/29 10:40:24;;;;;;;;;;;12.60;78.80;;;;;;5133775;28;19938;-68
2023/03/29 10:42:52;;;;;;;;;;;12.70;78.70;;;;;;5115080;28;19946;-68
2023/03/29 10:45:20;;;;;;;;;;;12.80;78.70;;;;;;5133620;27;19916;-68
2023/03/29 10:47:47;;;;;;;;;;;12.80;78.70;;;;;;5133855;28;20001;-68
2023/03/29 10:50:14;;;;;;;;;;;12.70;78.70;;;;;;5133719;28;20010;-69
2023/03/29 10:52:40;;;;;;;;;;;12.60;79.00;;;;;;5115075;28;20272;-68
2023/03/29 10:55:11;;;;;;;;;;;12.60;79.30;;;;;;5133703;28;19952;-68
2023/03/29 10:57:50;;;;;;;;;;;12.60;79.40;;;;;;5114412;28;19919;-68
2023/03/29 11:00:31;;;;;;;;;;;12.60;79.50;;;;;;5113574;28;20368;-68
2023/03/29 11:03:16;;;;;;;;;;;12.70;79.50;;;;;;5133446;28;20276;-68
2023/03/29 11:05:56;;;;;;;;;;;12.70;79.50;;;;;;5114167;28;19922;-68
2023/03/29 11:08:34;;;;;;;;;;;12.70;79.70;;;;;;5133191;28;19938;-68
2023/03/29 11:11:15;;;;;;;;;;;12.90;79.70;;;;;;5133525;28;19916;-68
2023/03/29 11:13:50;;;;;;;;;;;12.90;79.50;;;;;;5133369;28;19941;-69
2023/03/29 11:16:21;;;;;;;;;;;12.90;79.40;;;;;;5133413;28;19916;-68
2023/03/29 11:18:56;;;;;;;;;;;12.90;79.40;;;;;;5133336;28;19923;-68
2023/03/29 11:21:27;;;;;;;;;;;12.80;79.50;;;;;;5133445;28;19915;-68
2023/03/29 11:23:59;;;;;;;;;;;12.90;79.80;;;;;;5113254;28;20330;-68
2023/03/29 11:26:36;;;;;;;;;;;13.00;80.00;;;;;;5133401;28;20372;-68
2023/03/29 11:29:14;;;;;;;;;;;13.20;79.80;;;;;;5133312;28;20014;-68
2023/03/29 11:31:59;;;;;;;;;;;13.20;79.40;;;;;;5133345;28;19915;-69
2023/03/29 11:34:32;;;;;;;;;;;13.20;79.50;;;;;;5130285;28;19915;-68
2023/03/29 11:37:18;;;;;;;;;;;13.30;79.60;;;;;;5130829;28;19915;-68
2023/03/29 11:39:57;;;;;;;;;;;13.10;79.50;;;;;;5117798;28;19918;-69
2023/03/29 11:42:27;;;;;;;;;;;13.10;79.80;;;;;;5133034;28;19915;-68
2023/03/29 11:44:54;;;;;;;;;;;13.10;80.00;;;;;;5133018;28;19919;-68
2023/03/29 11:47:21;;;;;;;;;;;13.20;80.10;;;;;;5133500;28;19915;-68
2023/03/29 11:49:53;;;;;;;;;;;13.20;79.90;;;;;;5132985;28;20359;-68
2023/03/29 11:52:38;;;;;;;;;;;13.20;79.80;;;;;;5133443;28;20433;-68
2023/03/29 11:55:13;;;;;;;;;;;13.20;80.00;;;;;;5132915;28;19923;-68
2023/03/29 11:57:41;;;;;;;;;;;13.10;80.10;;;;;;5134431;27;19923;-68
2023/03/29 12:00:13;;;;;;;;;;;13.10;80.40;;;;;;5136411;28;19920;-68
2023/03/29 12:02:43;;;;;;;;;;;13.10;80.50;;;;;;5136340;28;19915;-68
2023/03/29 12:05:12;;;;;;;;;;;13.10;81.20;;;;;;5136272;28;19922;-68
2023/03/29 12:07:42;;;;;;;;;;;13.20;80.60;;;;;;5136239;28;19929;-68
2023/03/29 12:10:22;;;;;;;;;;;13.20;80.30;;;;;;5136182;28;19924;-68
2023/03/29 12:13:02;;;;;;;;;;;13.20;80.20;;;;;;5136315;28;19915;-69
2023/03/29 12:15:30;;;;;;;;;;;13.10;80.30;;;;;;5136236;28;19923;-68
2023/03/29 12:18:16;;;;;;;;;;;13.10;80.60;;;;;;5136152;28;19927;-69
2023/03/29 12:20:45;;;;;;;;;;;13.00;80.80;;;;;;5136524;28;20010;-68
2023/03/29 12:23:13;;;;;;;;;;;13.10;81.00;;;;;;5136088;28;19968;-69
2023/03/29 12:25:43;;;;;;;;;;;13.10;81.00;;;;;;5135996;28;19915;-68
2023/03/29 12:28:17;;;;;;;;;;;13.10;81.00;;;;;;5136082;28;19915;-68
2023/03/29 12:30:47;;;;;;;;;;;13.20;80.80;;;;;;5117340;28;20372;-68
2023/03/29 12:33:22;;;;;;;;;;;13.20;80.70;;;;;;5135862;28;20399;-69
2023/03/29 12:36:01;;;;;;;;;;;13.30;80.80;;;;;;5132221;28;19915;-69
2023/03/29 12:38:29;;;;;;;;;;;13.30;80.60;;;;;;5134621;28;19923;-68
2023/03/29 12:40:56;;;;;;;;;;;13.30;80.50;;;;;;5135790;28;19915;-69
2023/03/29 12:43:23;;;;;;;;;;;13.30;80.50;;;;;;5135783;28;19924;-68
2023/03/29 12:45:52;;;;;;;;;;;13.30;80.70;;;;;;5131916;28;19922;-68
2023/03/29 12:48:19;;;;;;;;;;;13.30;80.70;;;;;;5135780;28;20344;-68
2023/03/29 12:50:49;;;;;;;;;;;13.20;80.90;;;;;;5136055;28;20013;-68
2023/03/29 12:53:17;;;;;;;;;;;13.20;81.10;;;;;;5135638;28;20387;-69
2023/03/29 12:55:48;;;;;;;;;;;13.10;81.10;;;;;;5135579;28;19922;-68
2023/03/29 12:58:25;;;;;;;;;;;13.20;81.30;;;;;;5135604;28;19919;-68
2023/03/29 13:01:04;;;;;;;;;;;13.20;81.30;;;;;;5131871;28;19941;-68
2023/03/29 13:03:34;;;;;;;;;;;13.00;81.40;;;;;;5134160;28;19931;-69
2023/03/29 13:06:02;;;;;;;;;;;13.00;81.60;;;;;;5117070;28;20385;-68
2023/03/29 13:08:43;;;;;;;;;;;13.10;81.70;;;;;;5134175;27;20453;-69
2023/03/29 13:11:24;;;;;;;;;;;13.10;81.60;;;;;;5135212;28;19922;-69
2023/03/29 13:13:51;;;;;;;;;;;13.20;81.40;;;;;;5135145;28;20357;-68
2023/03/29 13:16:18;;;;;;;;;;;13.30;81.40;;;;;;5135142;28;19957;-68
2023/03/29 13:18:56;;;;;;;;;;;13.30;81.40;;;;;;5135036;28;19999;-68
2023/03/29 13:21:29;;;;;;;;;;;13.40;81.40;;;;;;5116691;28;19921;-69
2023/03/29 13:24:14;;;;;;;;;;;13.40;81.20;;;;;;5135574;28;20376;-68
2023/03/29 13:26:45;;;;;;;;;;;13.60;81.00;;;;;;5135327;28;20002;-68
2023/03/29 13:29:26;;;;;;;;;;;13.60;80.80;;;;;;5135064;28;19960;-69
2023/03/29 13:32:12;;;;;;;;;;;13.80;80.60;;;;;;5135108;28;19968;-68
2023/03/29 13:34:57;;;;;;;;;;;14.00;80.30;;;;;;5134950;28;20257;-68
2023/03/29 13:37:42;;;;;;;;;;;14.10;80.10;;;;;;5134026;28;19916;-69
2023/03/29 13:40:27;;;;;;;;;;;14.20;79.80;;;;;;5134782;28;19937;-68
2023/03/29 13:42:57;;;;;;;;;;;14.20;80.00;;;;;;5134618;28;19934;-69
2023/03/29 13:45:25;;;;;;;;;;;14.30;79.90;;;;;;5134752;28;19963;-69
2023/03/29 13:48:11;;;;;;;;;;;14.40;79.70;;;;;;5134644;28;19964;-68
2023/03/29 13:50:38;;;;;;;;;;;14.40;79.80;;;;;;5134474;28;20002;-68
2023/03/29 13:53:11;;;;;;;;;;;14.50;79.50;;;;;;5134967;28;20272;-69
2023/03/29 13:55:41;;;;;;;;;;;14.40;79.50;;;;;;5134573;28;19915;-68
2023/03/29 13:58:14;;;;;;;;;;;14.40;79.70;;;;;;5115170;28;20383;-69
2023/03/29 14:00:45;;;;;;;;;;;14.50;79.70;;;;;;5134271;28;19930;-69
2023/03/29 14:03:13;;;;;;;;;;;14.50;79.80;;;;;;5134125;28;19919;-69
2023/03/29 14:05:40;;;;;;;;;;;14.50;79.80;;;;;;5134231;28;19915;-69
2023/03/29 14:08:08;;;;;;;;;;;14.60;79.70;;;;;;5114850;28;20315;-68
2023/03/29 14:10:38;;;;;;;;;;;14.70;79.60;;;;;;5134226;28;19922;-68
2023/03/29 14:13:03;;;;;;;;;;;14.80;79.70;;;;;;5134149;28;19912;-69
2023/03/29 14:15:49;;;;;;;;;;;14.80;79.50;;;;;;5134029;28;19972;-69
2023/03/29 14:18:18;;;;;;;;;;;14.80;79.40;;;;;;5133986;28;20369;-68
2023/03/29 14:20:45;;;;;;;;;;;14.80;79.40;;;;;;5133633;27;20730;-69
2023/03/29 14:23:11;;;;;;;;;;;14.80;79.60;;;;;;5134062;28;19958;-69
2023/03/29 14:25:39;;;;;;;;;;;14.70;79.90;;;;;;5133955;28;20422;-69
2023/03/29 14:28:21;;;;;;;;;;;14.80;80.00;;;;;;5113595;28;19955;-68
2023/03/29 14:30:48;;;;;;;;;;;14.80;80.20;;;;;;5133828;28;19915;-68
2023/03/29 14:33:22;;;;;;;;;;;14.90;80.10;;;;;;5133865;28;20013;-68